Time;durP1;ratioP1;P1;durP2;ratioP2;P2;SDS_P1;SDS_P2;PMS_P1;PMS_P2;Temp;Humidity;BMP_temperature;BMP_pressure;BME280_temperature;BME280_humidity;BME280_pressure;Samples;Min_cycle;Max_cycle;Signal;HPM_P1;HPM_P2
2022/11/23 00:00:11;;;;;;;8.77;5.63;;;;;;;19.62;50.83;95599.97;12883301;23;20099;-91
2022/11/23 00:05:51;;;;;;;9.70;5.75;;;;;;;19.62;50.62;95604.56;12874874;23;20024;-90
2022/11/23 00:11:11;;;;;;;7.65;5.53;;;;;;;19.61;50.78;95605.72;12882965;23;20024;-91
2022/11/23 00:16:31;;;;;;;8.82;5.72;;;;;;;19.58;50.63;95595.59;12837067;23;20024;-91
2022/11/23 00:21:51;;;;;;;8.30;5.28;;;;;;;19.56;50.87;95599.47;12837090;23;20464;-90
2022/11/23 00:27:11;;;;;;;9.07;5.55;;;;;;;19.54;50.64;95607.13;12837294;23;20027;-90
2022/11/23 00:32:31;;;;;;;8.38;4.97;;;;;;;19.52;50.79;95609.41;12884150;23;20020;-90
2022/11/23 00:37:51;;;;;;;8.27;5.65;;;;;;;19.52;50.67;95614.00;12883655;23;20048;-91
2022/11/23 00:43:11;;;;;;;7.50;5.05;;;;;;;19.51;50.78;95607.06;12837989;23;20091;-91
2022/11/23 00:48:31;;;;;;;8.57;5.43;;;;;;;19.49;50.67;95598.53;12883548;23;20023;-90
2022/11/23 00:53:52;;;;;;;7.50;4.93;;;;;;;19.48;50.60;95597.75;12883488;23;20095;-90
2022/11/23 00:59:12;;;;;;;9.77;5.43;;;;;;;19.45;50.53;95595.75;12836990;23;20511;-92
2022/11/23 01:04:32;;;;;;;8.25;5.30;;;;;;;19.44;50.41;95591.47;12837794;23;20379;-91
2022/11/23 01:09:52;;;;;;;8.93;5.22;;;;;;;19.41;50.53;95597.56;12837660;23;20099;-92
2022/11/23 01:15:12;;;;;;;7.60;5.10;;;;;;;19.40;50.52;95593.28;12837542;23;20028;-91
2022/11/23 01:20:33;;;;;;;6.95;4.57;;;;;;;19.39;50.70;95596.38;12837288;23;20044;-90
2022/11/23 01:25:54;;;;;;;9.25;4.97;;;;;;;19.38;50.63;95605.59;12883760;23;20020;-91
2022/11/23 01:31:22;;;;;;;6.95;4.72;;;;;;;19.36;50.34;95601.31;12840728;23;20020;-91
2022/11/23 01:36:43;;;;;;;7.38;4.75;;;;;;;19.34;50.44;95608.22;12840502;23;20039;-91
2022/11/23 01:42:06;;;;;;;5.95;4.68;;;;;;;19.33;50.38;95606.66;12841032;23;20020;-91
2022/11/23 01:47:26;;;;;;;8.00;5.25;;;;;;;19.31;50.56;95608.94;12861688;23;20087;-91
2022/11/23 01:52:46;;;;;;;7.95;4.88;;;;;;;19.30;50.38;95607.34;12840628;23;20087;-91
2022/11/23 01:58:08;;;;;;;7.30;5.10;;;;;;;19.28;50.58;95626.59;12841112;23;20124;-91
2022/11/23 02:03:28;;;;;;;6.22;4.53;;;;;;;19.28;50.55;95631.22;12840855;23;20471;-90
2022/11/23 02:08:50;;;;;;;6.75;4.40;;;;;;;19.25;50.55;95627.31;12840565;23;20054;-91
2022/11/23 02:14:10;;;;;;;6.57;4.60;;;;;;;19.25;50.55;95623.81;12840329;23;20016;-91
2022/11/23 02:19:56;;;;;;;6.05;4.60;;;;;;;19.23;50.56;95634.19;12840382;23;20040;-90
2022/11/23 02:25:28;;;;;;;7.43;4.68;;;;;;;19.20;50.64;95641.06;12839536;23;20408;-90
2022/11/23 02:30:50;;;;;;;6.50;4.70;;;;;;;19.19;50.70;95641.41;12839961;23;20039;-90
2022/11/23 02:36:28;;;;;;;8.13;4.43;;;;;;;19.18;50.58;95635.22;12840017;23;20026;-92
2022/11/23 02:41:50;;;;;;;5.47;4.20;;;;;;;19.15;50.50;95628.63;12859744;23;20044;-90
2022/11/23 02:47:10;;;;;;;5.28;3.95;;;;;;;19.14;50.60;95632.44;12840124;23;20497;-91
2022/11/23 02:52:31;;;;;;;5.32;4.32;;;;;;;19.13;50.68;95632.78;12886851;23;20451;-91
2022/11/23 02:57:51;;;;;;;5.95;4.35;;;;;;;19.12;50.69;95640.09;12840593;23;20024;-91
2022/11/23 03:03:11;;;;;;;5.75;4.20;;;;;;;19.09;50.60;95640.81;12839406;23;20107;-91
2022/11/23 03:08:32;;;;;;;6.72;4.40;;;;;;;19.08;50.59;95641.94;12839414;23;20579;-91
2022/11/23 03:13:53;;;;;;;5.97;4.43;;;;;;;19.07;50.64;95643.09;12884687;23;20016;-91
2022/11/23 03:19:14;;;;;;;4.95;4.00;;;;;;;19.04;50.54;95641.06;12885866;23;20436;-92
2022/11/23 03:24:35;;;;;;;5.38;3.80;;;;;;;19.04;50.51;95645.69;12839483;23;20348;-91
2022/11/23 03:29:56;;;;;;;5.10;4.30;;;;;;;19.02;50.62;95646.03;12884899;23;20012;-90
2022/11/23 03:35:17;;;;;;;4.82;3.70;;;;;;;19.02;50.46;95639.88;12838946;23;20126;-92
2022/11/23 03:41:02;;;;;;;5.53;4.20;;;;;;;19.00;50.37;95636.72;12869696;23;20032;-91
2022/11/23 03:46:34;;;;;;;4.97;3.78;;;;;;;18.98;50.59;95639.78;12843863;23;20024;-90
2022/11/23 03:51:54;;;;;;;4.75;3.67;;;;;;;18.96;50.61;95644.72;12883713;23;20399;-91
2022/11/23 03:57:14;;;;;;;4.63;3.90;;;;;;;18.96;50.49;95631.25;12839474;23;20040;-92
2022/11/23 04:02:34;;;;;;;4.90;3.65;;;;;;;18.94;50.59;95628.88;12837336;23;20016;-91
2022/11/23 04:08:00;;;;;;;5.60;4.00;;;;;;;18.93;50.23;95627.34;12840054;23;20468;-91
2022/11/23 04:13:20;;;;;;;4.72;3.85;;;;;;;18.90;50.43;95628.00;12838633;23;20028;-90
2022/11/23 04:18:40;;;;;;;4.95;3.80;;;;;;;18.91;50.68;95624.16;12837865;23;20040;-91
2022/11/23 04:24:02;;;;;;;4.68;3.63;;;;;;;18.88;50.43;95627.59;12838128;23;20068;-91
2022/11/23 04:29:25;;;;;;;4.35;3.78;;;;;;;18.88;50.41;95624.09;12886009;23;20448;-92
2022/11/23 04:34:47;;;;;;;5.43;3.70;;;;;;;18.86;50.45;95637.16;12838992;23;20024;-91
2022/11/23 04:40:10;;;;;;;4.93;3.60;;;;;;;18.85;50.45;95640.97;12883784;23;20024;-92
2022/11/23 04:45:38;;;;;;;4.43;4.00;;;;;;;18.82;50.45;95647.06;12839525;23;20024;-91
2022/11/23 04:51:02;;;;;;;4.82;3.50;;;;;;;18.81;50.36;95650.91;12839248;23;20016;-91
2022/11/23 04:56:27;;;;;;;5.63;4.00;;;;;;;18.80;50.48;95658.22;12840291;23;20020;-92
2022/11/23 05:01:51;;;;;;;4.53;3.78;;;;;;;18.78;50.56;95658.53;12837400;23;20017;-92
2022/11/23 05:07:36;;;;;;;5.00;3.40;;;;;;;18.77;50.44;95662.34;12852480;23;20020;-92
2022/11/23 05:13:26;;;;;;;4.72;3.70;;;;;;;18.76;50.87;95676.97;12841503;23;20020;-92
2022/11/23 05:18:50;;;;;;;4.93;3.92;;;;;;;18.76;50.71;95670.81;12846557;23;20020;-92
2022/11/23 05:24:45;;;;;;;4.28;3.55;;;;;;;18.76;51.07;95660.00;12842247;23;20091;-93
2022/11/23 05:30:12;;;;;;;5.63;3.60;;;;;;;18.76;51.03;95663.50;12846258;23;20024;-94
2022/11/23 05:35:33;;;;;;;6.20;3.80;;;;;;;18.76;51.04;95666.19;12846774;22;20015;-91
2022/11/23 05:41:05;;;;;;;6.93;3.60;;;;;;;18.77;51.10;95661.56;12813554;23;20027;-90
2022/11/23 05:46:25;;;;;;;4.97;3.10;;;;;;;18.80;51.06;95660.09;12847166;23;20021;-91
2022/11/23 05:51:48;;;;;;;4.93;3.40;;;;;;;18.80;51.20;95660.09;12803648;23;20024;-92
2022/11/23 05:57:36;;;;;;;4.65;3.80;;;;;;;18.79;51.69;95659.31;12803934;23;20035;-93
2022/11/23 08:01:49;;;;;;;8.00;4.78;;;;;;;19.18;50.88;95718.94;10578947;22;20964;-44
2022/11/23 08:07:08;;;;;;;6.53;4.38;;;;;;;19.20;50.96;95718.59;10574650;28;20125;-44
2022/11/23 08:12:28;;;;;;;8.55;4.90;;;;;;;19.23;50.93;95720.56;10575469;28;20059;-45
2022/11/23 08:17:47;;;;;;;6.68;4.22;;;;;;;19.26;50.72;95725.28;10588805;28;20058;-46
2022/11/23 08:23:06;;;;;;;6.80;5.07;;;;;;;19.27;50.45;95711.44;10574991;28;20059;-43
2022/11/23 08:28:26;;;;;;;6.85;4.95;;;;;;;19.29;50.54;95721.91;10574900;28;20062;-44
2022/11/23 08:33:45;;;;;;;6.47;4.70;;;;;;;19.31;50.52;95727.75;10574077;28;20062;-43
2022/11/23 08:39:05;;;;;;;8.30;5.40;;;;;;;19.32;50.44;95721.19;10574320;28;20468;-43
2022/11/23 08:44:24;;;;;;;8.45;5.15;;;;;;;19.35;50.55;95725.91;10574378;28;20055;-44
2022/11/23 08:49:44;;;;;;;8.98;5.18;;;;;;;19.37;50.59;95720.94;10573922;28;20048;-45
2022/11/23 08:55:04;;;;;;;8.57;4.70;;;;;;;19.39;50.58;95729.47;10573279;28;20130;-45
2022/11/23 09:00:24;;;;;;;9.93;4.95;;;;;;;19.43;50.42;95729.56;10572662;28;20063;-44
2022/11/23 09:05:43;;;;;;;8.40;4.80;;;;;;;19.44;50.40;95728.44;10572922;28;20052;-43
2022/11/23 09:11:05;;;;;;;9.60;5.22;;;;;;;19.46;50.65;95740.44;10556685;28;20076;-45
2022/11/23 09:16:24;;;;;;;10.98;5.57;;;;;;;19.48;50.61;95738.19;10545248;28;20056;-44
2022/11/23 09:21:44;;;;;;;8.73;4.90;;;;;;;19.50;50.38;95735.94;10545036;28;20074;-44
2022/11/23 09:27:03;;;;;;;8.57;5.32;;;;;;;19.52;50.47;95735.56;10544249;28;20052;-46
2022/11/23 09:32:23;;;;;;;9.88;5.68;;;;;;;19.54;50.48;95731.41;10544557;28;20048;-43
2022/11/23 09:37:44;;;;;;;9.38;5.43;;;;;;;19.56;50.32;95726.44;10543341;28;20135;-45
2022/11/23 09:43:22;;;;;;;11.00;5.00;;;;;;;19.59;50.42;95726.84;10543921;28;20052;-43
2022/11/23 09:49:01;;;;;;;8.75;5.32;;;;;;;19.59;50.25;95716.84;10543698;28;20052;-44
2022/11/23 09:54:32;;;;;;;8.98;5.13;;;;;;;19.61;50.52;95711.84;10543295;28;20128;-43
2022/11/23 09:59:59;;;;;;;9.60;5.00;;;;;;;19.63;50.46;95715.00;10542153;28;20495;-45
2022/11/23 10:05:22;;;;;;;12.20;5.75;;;;;;;19.66;49.77;95705.41;10527947;28;20063;-44
2022/11/23 10:11:01;;;;;;;10.30;5.28;;;;;;;19.67;49.85;95696.16;10527651;28;20131;-44
2022/11/23 10:16:42;;;;;;;9.10;5.22;;;;;;;19.70;49.60;95700.88;10555910;28;20047;-44
2022/11/23 10:22:30;;;;;;;9.88;4.47;;;;;;;19.71;49.48;95692.44;10525939;28;20105;-44
2022/11/23 10:27:53;;;;;;;8.57;5.10;;;;;;;19.74;49.81;95688.25;10541480;28;20052;-45
2022/11/23 10:33:15;;;;;;;7.70;4.80;;;;;;;19.74;49.81;95682.84;10541767;28;20048;-45
2022/11/23 10:38:35;;;;;;;7.50;4.63;;;;;;;19.77;50.19;95686.75;10541160;28;20070;-45
2022/11/23 10:43:59;;;;;;;6.32;4.50;;;;;;;19.81;50.29;95684.91;10541410;28;20058;-44
2022/11/23 10:49:28;;;;;;;6.00;4.13;;;;;;;19.85;50.31;95680.38;10540438;28;20059;-44
2022/11/23 10:54:53;;;;;;;5.78;4.00;;;;;;;19.86;50.30;95674.63;10525895;28;20056;-44
2022/11/23 11:00:14;;;;;;;7.00;4.15;;;;;;;19.89;50.59;95686.63;10524952;28;20121;-44
2022/11/23 11:05:36;;;;;;;5.32;3.95;;;;;;;19.90;50.90;95678.19;10539892;28;20551;-44
2022/11/23 11:11:05;;;;;;;6.03;4.00;;;;;;;19.92;51.56;95684.03;10539511;28;20503;-45
2022/11/23 11:16:33;;;;;;;7.28;5.03;;;;;;;19.94;52.69;95684.44;10540180;28;20059;-46
2022/11/23 11:21:52;;;;;;;5.27;3.73;;;;;;;19.98;53.78;95689.94;10540249;28;20070;-43
2022/11/23 11:27:15;;;;;;;39.55;26.13;;;;;;;20.02;51.86;95681.91;10524853;28;20056;-45
2022/11/23 11:32:53;;;;;;;35.83;21.80;;;;;;;20.07;51.82;95687.81;10539512;28;20113;-45
2022/11/23 11:38:24;;;;;;;33.37;20.67;;;;;;;20.10;50.48;95680.91;10553128;28;20044;-45
2022/11/23 11:43:47;;;;;;;29.60;19.60;;;;;;;20.12;49.50;95673.22;10524314;28;20052;-44
2022/11/23 11:49:27;;;;;;;27.88;18.30;;;;;;;20.15;48.14;95688.75;10523937;28;20059;-45
2022/11/23 11:54:57;;;;;;;29.55;18.77;;;;;;;20.17;47.46;95686.47;10524062;28;20059;-45
2022/11/23 12:00:19;;;;;;;25.00;18.08;;;;;;;20.19;46.70;95684.19;10538306;28;20060;-47
2022/11/23 12:05:47;;;;;;;23.90;16.58;;;;;;;20.21;46.03;95686.53;10538420;28;20502;-44
2022/11/23 12:11:08;;;;;;;23.43;16.83;;;;;;;20.21;45.60;95687.34;10523676;28;20059;-45
2022/11/23 12:16:55;;;;;;;22.50;16.27;;;;;;;20.23;45.05;95681.53;10536905;28;20047;-47
2022/11/23 12:22:25;;;;;;;24.58;15.73;;;;;;;20.23;44.41;95679.66;10517638;28;20376;-44
2022/11/23 12:28:00;;;;;;;21.90;14.57;;;;;;;20.24;44.15;95675.78;10538419;28;20143;-44
2022/11/23 12:33:42;;;;;;;19.17;14.68;;;;;;;20.26;43.69;95673.50;10523330;28;20105;-45
2022/11/23 12:39:20;;;;;;;16.70;13.35;;;;;;;20.27;43.30;95679.72;10538044;28;20051;-46
2022/11/23 12:44:58;;;;;;;18.73;14.13;;;;;;;20.28;43.77;95681.28;10539876;28;20126;-43
2022/11/23 12:50:22;;;;;;;16.75;13.15;;;;;;;20.29;43.41;95683.63;10559752;28;20514;-44
2022/11/23 12:55:46;;;;;;;16.92;12.43;;;;;;;20.29;43.05;95683.63;10546120;28;20056;-44
2022/11/23 13:01:20;;;;;;;13.95;10.93;;;;;;;20.31;42.80;95675.94;10544878;28;20052;-45
2022/11/23 13:07:09;;;;;;;19.50;12.88;;;;;;;20.31;43.07;95670.53;10545480;28;20105;-47
2022/11/23 13:13:07;;;;;;;15.60;11.23;;;;;;;20.33;42.42;95667.47;10545246;28;20109;-45
2022/11/23 13:18:49;;;;;;;12.95;10.18;;;;;;;20.34;42.35;95669.81;10544327;28;20051;-45
2022/11/23 13:24:28;;;;;;;15.88;10.77;;;;;;;20.34;42.18;95677.91;10528875;28;20556;-45
2022/11/23 13:29:57;;;;;;;14.25;9.88;;;;;;;20.37;42.16;95678.38;10544499;28;20071;-45
2022/11/23 13:35:19;;;;;;;12.52;9.45;;;;;;;20.36;41.91;95672.16;10544279;28;20052;-44
2022/11/23 13:40:43;;;;;;;14.13;9.43;;;;;;;20.37;41.85;95681.84;10543975;28;20044;-45
2022/11/23 13:46:29;;;;;;;13.77;9.10;;;;;;;20.36;41.40;95674.88;10528568;28;20052;-45
2022/11/23 13:52:16;;;;;;;13.90;8.95;;;;;;;20.37;41.53;95670.25;10528039;28;20055;-45
2022/11/23 13:57:40;;;;;;;12.73;8.82;;;;;;;20.37;42.03;95673.75;10527374;28;20052;-44
2022/11/23 14:03:37;;;;;;;10.70;8.13;;;;;;;20.35;40.65;95676.78;10542615;28;20060;-45
2022/11/23 14:09:26;;;;;;;14.03;9.93;;;;;;;20.34;40.61;95671.72;10542508;28;20453;-47
2022/11/23 14:14:48;;;;;;;;;;;;;;;20.32;40.01;95672.09;10512237;28;20055;-44
2022/11/23 14:20:34;;;;;;;11.57;8.15;;;;;;;20.31;40.06;95675.94;10541547;28;19924;-44
2022/11/23 14:26:17;;;;;;;11.85;7.85;;;;;;;20.31;40.21;95675.16;10555463;28;20040;-44
2022/11/23 14:32:13;;;;;;;12.32;8.25;;;;;;;20.30;39.84;95674.38;10506865;28;20053;-44
2022/11/23 14:37:57;;;;;;;9.88;7.63;;;;;;;20.29;39.91;95672.03;10555289;28;20047;-47
2022/11/23 14:43:18;;;;;;;9.00;7.40;;;;;;;20.28;39.85;95681.28;10541677;28;20055;-46
2022/11/23 14:48:38;;;;;;;10.15;7.93;;;;;;;20.26;39.69;95678.16;10539837;28;20052;-44
2022/11/23 14:54:02;;;;;;;8.70;6.90;;;;;;;20.25;39.74;95676.59;10541243;28;20176;-45
2022/11/23 14:59:26;;;;;;;9.20;7.20;;;;;;;20.23;39.68;95668.84;10525392;28;20120;-46
2022/11/23 15:04:54;;;;;;;11.40;8.52;;;;;;;20.15;37.98;95667.13;10540106;28;20055;-45
2022/11/23 15:10:23;;;;;;;9.57;7.70;;;;;;;20.11;40.82;95667.06;10540054;28;20416;-44
2022/11/23 15:15:44;;;;;;;10.32;7.80;;;;;;;20.14;41.36;95670.97;10540386;28;20051;-46
2022/11/23 15:21:17;;;;;;;9.25;7.28;;;;;;;20.14;41.71;95670.97;10540072;28;20059;-44
2022/11/23 15:26:43;;;;;;;10.45;6.80;;;;;;;20.15;42.51;95669.84;10524912;28;20072;-46
2022/11/23 15:32:22;;;;;;;7.30;6.32;;;;;;;20.19;42.98;95675.28;10539842;28;20173;-45
2022/11/23 15:37:45;;;;;;;8.30;6.72;;;;;;;20.19;43.33;95669.88;10539575;28;20058;-44
2022/11/23 15:43:04;;;;;;;8.25;6.85;;;;;;;20.19;43.53;95667.19;10539451;28;20059;-44
2022/11/23 15:48:31;;;;;;;7.82;6.75;;;;;;;20.19;43.77;95673.38;10539974;28;20048;-45
2022/11/23 15:53:51;;;;;;;7.65;6.57;;;;;;;20.21;44.02;95664.91;10537437;28;20475;-45
2022/11/23 15:59:27;;;;;;;9.00;6.53;;;;;;;20.20;44.09;95672.22;10538652;28;20063;-46
2022/11/23 16:04:47;;;;;;;7.82;6.25;;;;;;;20.20;44.13;95674.16;10539036;28;20051;-45
2022/11/23 16:10:13;;;;;;;7.00;6.05;;;;;;;20.19;44.40;95667.97;10538860;28;20051;-46
2022/11/23 16:15:43;;;;;;;8.30;7.00;;;;;;;20.19;44.57;95667.97;10552123;28;20448;-44
2022/11/23 16:21:06;;;;;;;10.18;6.72;;;;;;;20.21;44.69;95679.22;10542621;28;20129;-44
2022/11/23 16:26:31;;;;;;;6.78;6.15;;;;;;;20.20;44.83;95683.06;10545680;28;20502;-44
2022/11/23 16:31:53;;;;;;;8.00;6.50;;;;;;;20.21;44.88;95686.53;10531568;28;20101;-46
2022/11/23 16:37:13;;;;;;;7.45;6.07;;;;;;;20.21;44.94;95691.94;10560158;28;20383;-44
2022/11/23 16:42:34;;;;;;;6.97;5.97;;;;;;;20.22;45.06;95699.69;10546480;28;20055;-44
2022/11/23 16:48:00;;;;;;;7.80;5.78;;;;;;;20.23;45.16;95706.69;10559584;28;20093;-44
2022/11/23 16:53:20;;;;;;;6.35;5.75;;;;;;;20.24;45.09;95702.84;10545830;28;20063;-45
2022/11/23 16:58:40;;;;;;;6.88;6.18;;;;;;;20.24;45.28;95705.53;10545319;28;20469;-44
2022/11/23 17:03:59;;;;;;;6.82;5.65;;;;;;;20.25;45.29;95696.31;10545509;28;20055;-44
2022/11/23 17:09:19;;;;;;;7.72;5.60;;;;;;;20.26;45.46;95689.75;10545258;28;20105;-45
2022/11/23 17:14:39;;;;;;;6.47;5.80;;;;;;;20.28;45.33;95692.88;10544508;28;20052;-44
2022/11/23 17:19:59;;;;;;;7.13;6.00;;;;;;;20.28;45.28;95686.69;10529607;28;20059;-46
2022/11/23 17:25:19;;;;;;;6.43;5.75;;;;;;;20.28;45.40;95687.47;10544552;28;20056;-45
2022/11/23 17:30:38;;;;;;;6.57;5.90;;;;;;;20.29;45.39;95699.09;10543962;28;20060;-45
2022/11/23 17:35:58;;;;;;;6.65;5.80;;;;;;;20.30;45.45;95701.41;10544310;28;20063;-47
2022/11/23 17:41:18;;;;;;;6.32;5.65;;;;;;;20.30;45.38;95695.22;10543312;28;20563;-44
2022/11/23 17:46:37;;;;;;;6.80;6.10;;;;;;;20.32;45.45;95701.84;10543816;28;20074;-44
2022/11/23 17:51:56;;;;;;;6.32;5.72;;;;;;;20.33;45.44;95711.53;10543483;28;20048;-45
2022/11/23 17:57:18;;;;;;;6.82;6.13;;;;;;;20.35;45.58;95703.06;10542871;28;20051;-45
2022/11/23 18:02:38;;;;;;;6.07;5.47;;;;;;;20.35;45.54;95703.06;10527578;28;20052;-46
2022/11/23 18:07:57;;;;;;;6.05;5.47;;;;;;;20.35;45.71;95703.84;10555817;28;20494;-44
2022/11/23 18:13:17;;;;;;;6.88;6.22;;;;;;;20.39;45.44;95713.97;10542246;28;20097;-44
2022/11/23 18:18:37;;;;;;;8.80;7.90;;;;;;;20.41;45.63;95706.28;10542497;28;20422;-44
2022/11/23 18:23:57;;;;;;;11.30;7.20;;;;;;;20.41;45.69;95709.75;10542083;28;20074;-55
2022/11/23 18:29:17;;;;;;;9.23;7.53;;;;;;;20.42;45.93;95708.59;10542057;28;20056;-44
2022/11/23 18:34:36;;;;;;;9.95;7.40;;;;;;;20.43;45.90;95728.34;10541821;28;20051;-44
2022/11/23 18:39:56;;;;;;;8.38;7.05;;;;;;;20.45;45.86;95726.06;10554832;28;20048;-44
2022/11/23 18:45:16;;;;;;;8.82;7.15;;;;;;;20.48;46.02;95738.88;10539932;28;20056;-43
2022/11/23 18:50:36;;;;;;;9.57;7.47;;;;;;;20.51;46.34;95730.06;10540508;28;20052;-44
2022/11/23 18:56:01;;;;;;;8.75;7.70;;;;;;;20.51;46.42;95738.94;10540920;28;20052;-44
2022/11/23 19:01:22;;;;;;;8.98;6.75;;;;;;;20.53;46.58;95736.66;10534455;28;20053;-43
2022/11/23 19:06:42;;;;;;;9.93;7.13;;;;;;;20.53;46.41;95744.78;10476777;28;20044;-44
2022/11/23 19:12:01;;;;;;;11.07;7.45;;;;;;;20.54;46.63;95742.84;10464945;28;20053;-42
2022/11/23 19:17:21;;;;;;;11.57;7.30;;;;;;;20.57;46.88;95752.97;10456803;28;20053;-52
2022/11/23 19:22:41;;;;;;;9.10;7.38;;;;;;;20.61;47.16;95744.97;10456724;28;20057;-50
2022/11/23 19:28:00;;;;;;;7.85;6.90;;;;;;;20.61;47.15;95748.44;10455969;28;20059;-54
2022/11/23 19:33:20;;;;;;;9.23;6.75;;;;;;;20.62;47.09;95747.31;10463249;28;20053;-56
2022/11/23 19:38:39;;;;;;;8.20;7.03;;;;;;;20.63;47.07;95761.63;10476895;28;20044;-54
2022/11/23 19:43:59;;;;;;;9.32;6.95;;;;;;;20.63;47.20;95762.41;10469289;28;20415;-58
2022/11/23 19:49:19;;;;;;;11.82;7.03;;;;;;;20.62;47.38;95752.72;10455833;28;20045;-56
2022/11/23 19:54:38;;;;;;;7.88;6.90;;;;;;;20.63;47.28;95746.16;10479531;28;20391;-54
2022/11/23 19:59:58;;;;;;;9.48;6.80;;;;;;;20.64;47.67;95763.97;10470654;28;20056;-55
2022/11/23 20:05:17;;;;;;;9.73;7.05;;;;;;;20.64;47.80;95755.06;10507606;28;20040;-54
2022/11/23 20:10:37;;;;;;;8.07;6.20;;;;;;;20.65;47.66;95759.34;10494135;28;20561;-56
2022/11/23 20:16:01;;;;;;;8.57;6.25;;;;;;;20.63;47.98;95758.91;10510103;28;20040;-53
2022/11/23 20:21:21;;;;;;;8.23;6.53;;;;;;;20.63;47.80;95759.69;10509064;28;20399;-53
2022/11/23 20:26:41;;;;;;;8.95;6.60;;;;;;;20.62;48.01;95755.44;10493208;28;20049;-54
2022/11/23 20:32:02;;;;;;;10.55;6.78;;;;;;;20.61;48.14;95761.97;10494640;28;20457;-53
2022/11/23 20:37:22;;;;;;;9.80;6.53;;;;;;;20.61;48.00;95761.97;10494865;28;20048;-52
2022/11/23 20:42:41;;;;;;;8.27;6.32;;;;;;;20.62;48.22;95765.44;10492485;28;20114;-41
2022/11/23 20:48:01;;;;;;;8.15;6.30;;;;;;;20.60;48.09;95757.72;10492051;28;20074;-41
2022/11/23 20:53:20;;;;;;;8.82;6.65;;;;;;;20.60;48.31;95778.56;10492590;28;20059;-43
2022/11/23 20:58:40;;;;;;;8.02;6.38;;;;;;;20.57;47.82;95777.31;10505340;28;20052;-45
2022/11/23 21:04:00;;;;;;;7.45;6.57;;;;;;;20.58;47.72;95789.72;10535385;28;20097;-43
2022/11/23 21:09:19;;;;;;;10.05;6.35;;;;;;;20.56;48.08;95794.69;10542159;28;20048;-44
2022/11/23 21:14:39;;;;;;;7.53;6.18;;;;;;;20.56;47.83;95791.97;10543625;28;20056;-45
2022/11/23 21:19:59;;;;;;;7.93;6.35;;;;;;;20.55;47.75;95804.72;10538684;28;20051;-43
2022/11/23 21:25:18;;;;;;;8.02;6.13;;;;;;;20.54;47.80;95807.78;10543516;28;20055;-43
2022/11/23 21:30:37;;;;;;;7.32;5.60;;;;;;;20.53;47.74;95817.84;10502451;28;20056;-45
2022/11/23 21:36:00;;;;;;;6.50;5.90;;;;;;;20.52;47.75;95837.13;10542689;28;20431;-44
2022/11/23 21:41:20;;;;;;;6.63;5.43;;;;;;;20.51;47.75;95838.28;10543259;28;20040;-47
2022/11/23 21:46:39;;;;;;;7.65;5.38;;;;;;;20.50;47.76;95842.09;10541992;28;20571;-44
2022/11/23 21:51:59;;;;;;;6.07;5.43;;;;;;;20.49;47.82;95845.97;10543584;28;20044;-45
2022/11/23 21:57:19;;;;;;;6.63;5.53;;;;;;;20.47;47.54;95856.34;10543124;28;20395;-42
2022/11/23 22:02:38;;;;;;;6.97;5.88;;;;;;;20.45;47.68;95861.31;10500710;28;20498;-44
2022/11/23 22:07:58;;;;;;;8.00;5.50;;;;;;;20.43;47.73;95856.25;10499201;28;20127;-44
2022/11/23 22:13:18;;;;;;;10.27;6.00;;;;;;;20.40;48.06;95856.19;10500113;28;20056;-45
2022/11/23 22:18:38;;;;;;;7.78;5.78;;;;;;;20.39;48.16;95860.81;10496747;28;20044;-45
2022/11/23 22:23:58;;;;;;;7.68;5.82;;;;;;;20.36;48.18;95872.31;10513912;28;20043;-43
2022/11/23 22:29:18;;;;;;;7.03;5.80;;;;;;;20.33;48.15;95873.03;10515050;28;20059;-43
2022/11/23 22:34:38;;;;;;;8.23;5.60;;;;;;;20.32;48.24;95876.88;10499416;28;20495;-45
2022/11/23 22:39:58;;;;;;;6.80;5.70;;;;;;;20.30;48.48;95879.91;10499745;28;20190;-45
2022/11/23 22:45:18;;;;;;;7.38;5.65;;;;;;;20.30;48.53;95889.97;10499644;28;20057;-43
2022/11/23 22:50:38;;;;;;;7.07;5.50;;;;;;;20.28;48.57;95889.53;10499419;28;20056;-44
2022/11/23 22:56:02;;;;;;;6.97;5.75;;;;;;;20.27;48.71;95885.28;10498651;28;20094;-43
2022/11/23 23:01:25;;;;;;;7.13;5.68;;;;;;;20.25;48.81;95899.13;10498172;28;20057;-43
2022/11/23 23:06:45;;;;;;;6.80;5.07;;;;;;;20.24;48.82;95902.97;10498192;28;20056;-45
2022/11/23 23:12:05;;;;;;;8.15;5.38;;;;;;;20.22;48.97;95905.22;10498694;28;20048;-45
2022/11/23 23:17:24;;;;;;;6.55;5.57;;;;;;;20.21;49.04;95910.97;10498523;28;20053;-42
2022/11/23 23:22:43;;;;;;;6.75;5.43;;;;;;;20.18;48.96;95912.47;10511775;28;20047;-43
2022/11/23 23:28:03;;;;;;;7.30;5.70;;;;;;;20.16;49.15;95917.44;10497000;28;20098;-44
2022/11/23 23:33:22;;;;;;;7.60;5.78;;;;;;;20.15;49.06;95926.72;10496969;28;20113;-43
2022/11/23 23:38:42;;;;;;;7.05;5.50;;;;;;;20.13;49.14;95926.25;10497721;28;20078;-44
2022/11/23 23:44:02;;;;;;;6.45;5.32;;;;;;;20.11;49.18;95929.31;10496597;28;20453;-45
2022/11/23 23:49:25;;;;;;;7.55;5.40;;;;;;;20.10;49.12;95932.38;10496914;28;20075;-43
2022/11/23 23:54:44;;;;;;;6.88;5.47;;;;;;;20.08;49.22;95931.94;10496884;28;20063;-43
